sensor_id;sensor_type;location;lat;lon;timestamp;pressure;altitude;pressure_sealevel;temperature;humidity
23433;BME280;41331;45.412;10.992;2022-09-13T00:01:50;100783.50;;;22.03;65.66
23433;BME280;41331;45.412;10.992;2022-09-13T00:04:18;100780.34;;;21.93;66.06
23433;BME280;41331;45.412;10.992;2022-09-13T00:06:45;100778.81;;;21.89;65.23
23433;BME280;41331;45.412;10.992;2022-09-13T00:09:13;100783.56;;;21.85;65.61
23433;BME280;41331;45.412;10.992;2022-09-13T00:11:41;100774.84;;;21.76;65.87
23433;BME280;41331;45.412;10.992;2022-09-13T00:14:08;100775.22;;;21.78;66.15
23433;BME280;41331;45.412;10.992;2022-09-13T00:16:36;100774.03;;;21.89;64.88
23433;BME280;41331;45.412;10.992;2022-09-13T00:19:04;100772.06;;;21.90;64.81
23433;BME280;41331;45.412;10.992;2022-09-13T00:21:31;100757.41;;;21.86;64.72
23433;BME280;41331;45.412;10.992;2022-09-13T00:23:58;100766.91;;;21.95;64.25
23433;BME280;41331;45.412;10.992;2022-09-13T00:26:27;100761.75;;;22.01;63.69
23433;BME280;41331;45.412;10.992;2022-09-13T00:28:56;100764.94;;;22.00;63.86
23433;BME280;41331;45.412;10.992;2022-09-13T00:31:26;100765.31;;;21.73;64.79
23433;BME280;41331;45.412;10.992;2022-09-13T00:33:55;100763.75;;;21.65;65.38
23433;BME280;41331;45.412;10.992;2022-09-13T00:36:24;100763.75;;;21.68;65.31
23433;BME280;41331;45.412;10.992;2022-09-13T00:38:51;100761.78;;;21.72;64.81
23433;BME280;41331;45.412;10.992;2022-09-13T00:41:19;100757.81;;;21.77;64.36
23433;BME280;41331;45.412;10.992;2022-09-13T00:49:11;100764.13;;;21.53;65.73
23433;BME280;41331;45.412;10.992;2022-09-13T00:51:43;100765.75;;;21.50;65.63
23433;BME280;41331;45.412;10.992;2022-09-13T00:54:12;100762.97;;;21.54;65.01
23433;BME280;41331;45.412;10.992;2022-09-13T00:56:45;100760.56;;;21.49;66.12
23433;BME280;41331;45.412;10.992;2022-09-13T00:59:22;100761.78;;;21.44;66.14
23433;BME280;41331;45.412;10.992;2022-09-13T01:01:54;100762.16;;;21.42;66.95
23433;BME280;41331;45.412;10.992;2022-09-13T01:04:25;100764.53;;;21.40;67.54
23433;BME280;41331;45.412;10.992;2022-09-13T01:06:57;100764.09;;;21.24;66.49
23433;BME280;41331;45.412;10.992;2022-09-13T01:09:28;100770.41;;;21.28;66.71
23433;BME280;41331;45.412;10.992;2022-09-13T01:12:07;100767.25;;;21.26;66.24
23433;BME280;41331;45.412;10.992;2022-09-13T01:14:40;100757.34;;;21.18;66.92
23433;BME280;41331;45.412;10.992;2022-09-13T01:17:08;100755.38;;;21.11;67.73
23433;BME280;41331;45.412;10.992;2022-09-13T01:19:35;100761.72;;;21.23;67.28
23433;BME280;41331;45.412;10.992;2022-09-13T01:31:06;100760.41;;;20.74;70.56
23433;BME280;41331;45.412;10.992;2022-09-13T01:34:08;100755.66;;;20.71;69.87
23433;BME280;41331;45.412;10.992;2022-09-13T01:36:54;100751.78;;;21.00;68.58
23433;BME280;41331;45.412;10.992;2022-09-13T01:39:57;100753.72;;;20.92;68.73
23433;BME280;41331;45.412;10.992;2022-09-13T01:50:45;100749.69;;;20.65;70.81
23433;BME280;41331;45.412;10.992;2022-09-13T01:53:33;100755.25;;;20.68;70.56
23433;BME280;41331;45.412;10.992;2022-09-13T01:58:44;100752.09;;;20.70;70.84
23433;BME280;41331;45.412;10.992;2022-09-13T02:01:18;100749.28;;;20.63;70.63
23433;BME280;41331;45.412;10.992;2022-09-13T02:04:12;100757.94;;;20.58;71.21
23433;BME280;41331;45.412;10.992;2022-09-13T02:07:02;100752.13;;;20.74;69.07
23433;BME280;41331;45.412;10.992;2022-09-13T02:09:41;100760.41;;;20.77;69.28
23433;BME280;41331;45.412;10.992;2022-09-13T02:12:15;100751.31;;;20.69;68.81
23433;BME280;41331;45.412;10.992;2022-09-13T02:14:55;100751.31;;;20.69;69.40
23433;BME280;41331;45.412;10.992;2022-09-13T02:17:27;100744.97;;;20.73;69.08
23433;BME280;41331;45.412;10.992;2022-09-13T02:20:00;100747.34;;;20.67;71.24
23433;BME280;41331;45.412;10.992;2022-09-13T02:22:32;100735.06;;;20.61;69.41
23433;BME280;41331;45.412;10.992;2022-09-13T02:25:05;100735.84;;;20.58;69.89
23433;BME280;41331;45.412;10.992;2022-09-13T02:27:36;100731.13;;;20.62;69.57
23433;BME280;41331;45.412;10.992;2022-09-13T02:30:07;100734.63;;;20.52;70.04
23433;BME280;41331;45.412;10.992;2022-09-13T02:32:40;100730.31;;;20.58;70.19
23433;BME280;41331;45.412;10.992;2022-09-13T02:35:13;100729.94;;;20.66;69.79
23433;BME280;41331;45.412;10.992;2022-09-13T02:37:44;100721.66;;;20.66;69.32
23433;BME280;41331;45.412;10.992;2022-09-13T02:40:17;100725.94;;;20.53;70.03
23433;BME280;41331;45.412;10.992;2022-09-13T02:42:53;100716.78;;;20.42;70.40
23433;BME280;41331;45.412;10.992;2022-09-13T02:45:28;100721.53;;;20.41;70.37
23433;BME280;41331;45.412;10.992;2022-09-13T02:48:08;100719.88;;;20.26;70.90
23433;BME280;41331;45.412;10.992;2022-09-13T02:53:38;100719.81;;;20.15;71.41
23433;BME280;41331;45.412;10.992;2022-09-13T02:56:29;100713.09;;;20.13;71.52
23433;BME280;41331;45.412;10.992;2022-09-13T02:59:15;100711.13;;;20.17;71.67
23433;BME280;41331;45.412;10.992;2022-09-13T03:01:48;100713.13;;;20.20;71.51
23433;BME280;41331;45.412;10.992;2022-09-13T03:04:17;100700.50;;;20.23;71.51
23433;BME280;41331;45.412;10.992;2022-09-13T03:06:44;100703.25;;;20.23;71.51
23433;BME280;41331;45.412;10.992;2022-09-13T03:09:11;100697.81;;;20.33;71.02
23433;BME280;41331;45.412;10.992;2022-09-13T03:11:58;100689.44;;;20.23;71.68
23433;BME280;41331;45.412;10.992;2022-09-13T03:20:02;100693.31;;;20.07;73.46
23433;BME280;41331;45.412;10.992;2022-09-13T03:26:22;100692.91;;;20.02;73.89
23433;BME280;41331;45.412;10.992;2022-09-13T03:31:51;100682.66;;;20.06;73.42
23433;BME280;41331;45.412;10.992;2022-09-13T03:34:48;100679.44;;;19.97;74.11
23433;BME280;41331;45.412;10.992;2022-09-13T03:37:26;100678.69;;;20.00;73.62
23433;BME280;41331;45.412;10.992;2022-09-13T03:40:13;100678.63;;;19.92;74.58
23433;BME280;41331;45.412;10.992;2022-09-13T03:42:46;100683.03;;;20.01;75.10
23433;BME280;41331;45.412;10.992;2022-09-13T03:45:18;100675.06;;;19.85;74.65
23433;BME280;41331;45.412;10.992;2022-09-13T03:47:49;100693.97;;;19.83;74.69
23433;BME280;41331;45.412;10.992;2022-09-13T03:50:20;100682.91;;;19.79;74.30
23433;BME280;41331;45.412;10.992;2022-09-13T03:52:58;100682.56;;;19.84;75.03
23433;BME280;41331;45.412;10.992;2022-09-13T03:55:27;100679.72;;;19.77;74.31
23433;BME280;41331;45.412;10.992;2022-09-13T03:57:56;100673.41;;;19.77;74.31
23433;BME280;41331;45.412;10.992;2022-09-13T04:00:23;100681.25;;;19.64;75.46
23433;BME280;41331;45.412;10.992;2022-09-13T04:02:50;100678.03;;;19.62;75.90
23433;BME280;41331;45.412;10.992;2022-09-13T04:05:18;100678.31;;;19.46;76.31
23433;BME280;41331;45.412;10.992;2022-09-13T04:07:45;100686.59;;;19.46;76.87
23433;BME280;41331;45.412;10.992;2022-09-13T04:10:12;100683.84;;;19.50;75.94
23433;BME280;41331;45.412;10.992;2022-09-13T04:12:40;100681.09;;;19.50;74.75
23433;BME280;41331;45.412;10.992;2022-09-13T04:15:08;100685.03;;;19.49;75.31
23433;BME280;41331;45.412;10.992;2022-09-13T04:17:35;100691.75;;;19.51;74.55
23433;BME280;41331;45.412;10.992;2022-09-13T04:20:06;100698.06;;;19.48;75.54
23433;BME280;41331;45.412;10.992;2022-09-13T04:22:33;100692.13;;;19.50;76.35
23433;BME280;41331;45.412;10.992;2022-09-13T04:25:01;100685.78;;;19.46;77.33
23433;BME280;41331;45.412;10.992;2022-09-13T04:27:29;100686.94;;;19.41;75.42
23433;BME280;41331;45.412;10.992;2022-09-13T04:29:56;100685.75;;;19.42;76.13
23433;BME280;41331;45.412;10.992;2022-09-13T04:32:23;100685.31;;;19.36;77.63
23433;BME280;41331;45.412;10.992;2022-09-13T04:34:51;100692.75;;;19.29;75.03
23433;BME280;41331;45.412;10.992;2022-09-13T04:37:18;100696.72;;;19.31;75.16
23433;BME280;41331;45.412;10.992;2022-09-13T04:39:47;100695.53;;;19.32;76.20
23433;BME280;41331;45.412;10.992;2022-09-13T04:42:14;100682.56;;;19.33;77.44
23433;BME280;41331;45.412;10.992;2022-09-13T04:44:41;100693.25;;;19.38;77.45
23433;BME280;41331;45.412;10.992;2022-09-13T04:47:10;100697.53;;;19.35;77.10
23433;BME280;41331;45.412;10.992;2022-09-13T04:49:38;100697.94;;;19.37;77.99
23433;BME280;41331;45.412;10.992;2022-09-13T04:52:06;100691.19;;;19.31;77.65
23433;BME280;41331;45.412;10.992;2022-09-13T04:54:36;100692.81;;;19.36;77.43
23433;BME280;41331;45.412;10.992;2022-09-13T04:57:04;100700.34;;;19.39;76.94
23433;BME280;41331;45.412;10.992;2022-09-13T04:59:32;100699.16;;;19.40;76.89
23433;BME280;41331;45.412;10.992;2022-09-13T05:02:03;100686.97;;;19.45;77.57
23433;BME280;41331;45.412;10.992;2022-09-13T05:04:30;100692.06;;;19.42;78.41
23433;BME280;41331;45.412;10.992;2022-09-13T05:06:58;100695.66;;;19.43;77.48
23433;BME280;41331;45.412;10.992;2022-09-13T05:09:25;100694.03;;;19.42;78.75
23433;BME280;41331;45.412;10.992;2022-09-13T05:11:56;100691.50;;;19.19;80.90
23433;BME280;41331;45.412;10.992;2022-09-13T05:14:23;100696.28;;;19.26;79.95
23433;BME280;41331;45.412;10.992;2022-09-13T05:16:50;100696.13;;;19.11;79.08
23433;BME280;41331;45.412;10.992;2022-09-13T05:19:18;100700.50;;;19.16;77.81
23433;BME280;41331;45.412;10.992;2022-09-13T05:21:45;100699.91;;;19.37;76.80
23433;BME280;41331;45.412;10.992;2022-09-13T05:24:12;100702.00;;;19.51;76.09
23433;BME280;41331;45.412;10.992;2022-09-13T05:26:39;100693.31;;;19.49;76.15
23433;BME280;41331;45.412;10.992;2022-09-13T05:29:07;100705.25;;;19.60;76.04
23433;BME280;41331;45.412;10.992;2022-09-13T05:31:38;100708.09;;;19.71;76.11
23433;BME280;41331;45.412;10.992;2022-09-13T05:34:09;100715.69;;;19.84;76.17
23433;BME280;41331;45.412;10.992;2022-09-13T05:36:37;100711.00;;;19.88;76.98
23433;BME280;41331;45.412;10.992;2022-09-13T05:39:06;100715.31;;;19.86;77.34
23433;BME280;41331;45.412;10.992;2022-09-13T05:41:53;100719.72;;;20.01;76.29
23433;BME280;41331;45.412;10.992;2022-09-13T05:44:21;100717.03;;;20.12;75.38
23433;BME280;41331;45.412;10.992;2022-09-13T05:46:48;100718.69;;;20.24;75.25
23433;BME280;41331;45.412;10.992;2022-09-13T05:49:16;100711.72;;;20.51;73.12
23433;BME280;41331;45.412;10.992;2022-09-13T05:51:43;100710.22;;;20.75;72.06
23433;BME280;41331;45.412;10.992;2022-09-13T05:54:11;100697.63;;;20.95;69.79
23433;BME280;41331;45.412;10.992;2022-09-13T05:56:39;100704.81;;;21.43;68.32
23433;BME280;41331;45.412;10.992;2022-09-13T05:59:06;100706.69;;;22.03;65.68
23433;BME280;41331;45.412;10.992;2022-09-13T06:01:35;100704.41;;;22.93;63.19
23433;BME280;41331;45.412;10.992;2022-09-13T06:04:02;100693.03;;;23.77;60.10
23433;BME280;41331;45.412;10.992;2022-09-13T06:06:30;100697.28;;;24.88;56.83
23433;BME280;41331;45.412;10.992;2022-09-13T06:08:57;100694.81;;;24.93;54.57
23433;BME280;41331;45.412;10.992;2022-09-13T06:11:25;100697.28;;;23.89;57.14
23433;BME280;41331;45.412;10.992;2022-09-13T06:13:52;100700.81;;;22.96;62.05
23433;BME280;41331;45.412;10.992;2022-09-13T06:16:20;100707.59;;;23.43;61.48
23433;BME280;41331;45.412;10.992;2022-09-13T06:18:48;100705.75;;;25.08;56.19
23433;BME280;41331;45.412;10.992;2022-09-13T06:21:18;100703.50;;;26.36;51.90
23433;BME280;41331;45.412;10.992;2022-09-13T06:23:48;100698.16;;;26.98;49.61
23433;BME280;41331;45.412;10.992;2022-09-13T06:26:22;100703.19;;;27.23;48.68
23433;BME280;41331;45.412;10.992;2022-09-13T06:28:53;100699.59;;;27.71;47.65
23433;BME280;41331;45.412;10.992;2022-09-13T06:31:22;100700.84;;;29.08;43.35
23433;BME280;41331;45.412;10.992;2022-09-13T06:34:00;100704.31;;;29.12;44.06
23433;BME280;41331;45.412;10.992;2022-09-13T06:36:30;100706.16;;;29.41;43.13
23433;BME280;41331;45.412;10.992;2022-09-13T06:38:58;100706.63;;;29.27;43.49
23433;BME280;41331;45.412;10.992;2022-09-13T06:41:26;100703.47;;;29.50;43.79
23433;BME280;41331;45.412;10.992;2022-09-13T06:43:56;100715.59;;;28.83;43.94
23433;BME280;41331;45.412;10.992;2022-09-13T06:46:27;100724.78;;;29.48;43.47
23433;BME280;41331;45.412;10.992;2022-09-13T06:48:59;100716.22;;;29.99;43.15
23433;BME280;41331;45.412;10.992;2022-09-13T06:51:27;100701.63;;;30.48;41.96
23433;BME280;41331;45.412;10.992;2022-09-13T06:53:56;100700.16;;;30.65;39.81
23433;BME280;41331;45.412;10.992;2022-09-13T06:56:27;100696.72;;;31.01;39.92
23433;BME280;41331;45.412;10.992;2022-09-13T06:58:57;100695.13;;;31.31;38.63
23433;BME280;41331;45.412;10.992;2022-09-13T07:01:36;100708.88;;;31.29;38.51
23433;BME280;41331;45.412;10.992;2022-09-13T07:04:09;100695.00;;;31.44;38.31
23433;BME280;41331;45.412;10.992;2022-09-13T07:06:40;100693.91;;;31.01;39.22
23433;BME280;41331;45.412;10.992;2022-09-13T07:09:11;100708.41;;;31.31;39.09
23433;BME280;41331;45.412;10.992;2022-09-13T07:11:40;100695.06;;;31.22;38.95
23433;BME280;41331;45.412;10.992;2022-09-13T07:14:12;100704.94;;;31.27;38.90
23433;BME280;41331;45.412;10.992;2022-09-13T07:16:39;100694.09;;;31.07;39.22
23433;BME280;41331;45.412;10.992;2022-09-13T07:19:12;100700.97;;;31.64;39.09
23433;BME280;41331;45.412;10.992;2022-09-13T07:21:41;100700.59;;;32.54;37.52
23433;BME280;41331;45.412;10.992;2022-09-13T07:24:09;100696.25;;;32.16;38.71
23433;BME280;41331;45.412;10.992;2022-09-13T07:26:37;100689.28;;;31.84;39.25
23433;BME280;41331;45.412;10.992;2022-09-13T07:29:07;100706.56;;;32.38;37.78
23433;BME280;41331;45.412;10.992;2022-09-13T07:31:38;100699.03;;;32.53;38.34
23433;BME280;41331;45.412;10.992;2022-09-13T07:34:11;100710.50;;;32.22;38.33
23433;BME280;41331;45.412;10.992;2022-09-13T07:36:38;100702.53;;;32.20;38.76
23433;BME280;41331;45.412;10.992;2022-09-13T07:39:06;100689.34;;;32.54;37.65
23433;BME280;41331;45.412;10.992;2022-09-13T07:41:40;100686.75;;;32.74;37.90
23433;BME280;41331;45.412;10.992;2022-09-13T07:44:11;100693.09;;;33.27;37.32
23433;BME280;41331;45.412;10.992;2022-09-13T07:46:40;100689.03;;;32.94;37.66
23433;BME280;41331;45.412;10.992;2022-09-13T07:49:16;100698.78;;;33.17;37.48
23433;BME280;41331;45.412;10.992;2022-09-13T07:51:44;100704.56;;;32.81;38.23
23433;BME280;41331;45.412;10.992;2022-09-13T07:54:15;100697.16;;;32.59;38.83
23433;BME280;41331;45.412;10.992;2022-09-13T07:56:43;100706.38;;;33.59;37.57
23433;BME280;41331;45.412;10.992;2022-09-13T07:59:13;100704.16;;;33.06;37.74
23433;BME280;41331;45.412;10.992;2022-09-13T08:01:47;100710.22;;;32.90;37.90
23433;BME280;41331;45.412;10.992;2022-09-13T08:04:18;100712.75;;;33.12;37.90
23433;BME280;41331;45.412;10.992;2022-09-13T08:06:46;100721.63;;;32.86;38.63
23433;BME280;41331;45.412;10.992;2022-09-13T08:09:14;100719.38;;;34.05;36.18
23433;BME280;41331;45.412;10.992;2022-09-13T08:11:44;100719.69;;;33.35;38.11
23433;BME280;41331;45.412;10.992;2022-09-13T08:14:14;100714.50;;;33.33;38.25
23433;BME280;41331;45.412;10.992;2022-09-13T08:16:42;100718.81;;;33.91;36.89
23433;BME280;41331;45.412;10.992;2022-09-13T08:19:13;100718.19;;;34.11;36.54
23433;BME280;41331;45.412;10.992;2022-09-13T08:21:41;100722.75;;;34.09;37.17
23433;BME280;41331;45.412;10.992;2022-09-13T08:24:16;100724.13;;;34.13;36.76
23433;BME280;41331;45.412;10.992;2022-09-13T08:26:44;100718.19;;;33.96;36.66
23433;BME280;41331;45.412;10.992;2022-09-13T08:29:15;100717.91;;;33.46;37.76
23433;BME280;41331;45.412;10.992;2022-09-13T08:31:42;100722.00;;;34.97;34.82
23433;BME280;41331;45.412;10.992;2022-09-13T08:34:11;100714.72;;;34.31;36.28
23433;BME280;41331;45.412;10.992;2022-09-13T08:36:41;100724.31;;;33.95;36.17
23433;BME280;41331;45.412;10.992;2022-09-13T08:39:09;100728.13;;;33.83;36.88
23433;BME280;41331;45.412;10.992;2022-09-13T08:44:27;100728.34;;;34.77;34.01
23433;BME280;41331;45.412;10.992;2022-09-13T08:47:03;100719.38;;;34.64;34.81
23433;BME280;41331;45.412;10.992;2022-09-13T08:49:42;100727.25;;;34.15;36.12
23433;BME280;41331;45.412;10.992;2022-09-13T08:52:30;100732.22;;;34.20;36.33
23433;BME280;41331;45.412;10.992;2022-09-13T08:55:05;100738.16;;;34.22;35.41
23433;BME280;41331;45.412;10.992;2022-09-13T08:57:47;100736.63;;;34.36;35.74
23433;BME280;41331;45.412;10.992;2022-09-13T09:00:49;100733.41;;;35.02;33.26
23433;BME280;41331;45.412;10.992;2022-09-13T09:03:27;100728.50;;;35.03;33.93
23433;BME280;41331;45.412;10.992;2022-09-13T09:05:58;100735.59;;;35.89;30.98
23433;BME280;41331;45.412;10.992;2022-09-13T09:08:39;100733.44;;;36.25;31.36
23433;BME280;41331;45.412;10.992;2022-09-13T09:13:58;100726.16;;;36.44;30.75
23433;BME280;41331;45.412;10.992;2022-09-13T09:16:35;100730.44;;;35.47;32.35
23433;BME280;41331;45.412;10.992;2022-09-13T09:21:48;100731.66;;;34.31;34.79
23433;BME280;41331;45.412;10.992;2022-09-13T09:24:20;100726.91;;;33.60;36.75
23433;BME280;41331;45.412;10.992;2022-09-13T09:26:48;100730.28;;;33.49;37.16
23433;BME280;41331;45.412;10.992;2022-09-13T09:29:21;100724.78;;;35.12;33.57
23433;BME280;41331;45.412;10.992;2022-09-13T09:32:03;100731.25;;;34.38;35.07
23433;BME280;41331;45.412;10.992;2022-09-13T09:35:07;100732.66;;;33.89;35.42
23433;BME280;41331;45.412;10.992;2022-09-13T09:37:38;100736.13;;;33.84;36.18
23433;BME280;41331;45.412;10.992;2022-09-13T09:40:11;100740.16;;;33.68;36.65
23433;BME280;41331;45.412;10.992;2022-09-13T09:42:44;100729.66;;;33.69;37.15
23433;BME280;41331;45.412;10.992;2022-09-13T09:45:32;100730.19;;;33.58;36.28
23433;BME280;41331;45.412;10.992;2022-09-13T09:48:06;100720.75;;;33.85;35.97
23433;BME280;41331;45.412;10.992;2022-09-13T09:50:39;100728.03;;;34.16;34.67
23433;BME280;41331;45.412;10.992;2022-09-13T09:55:58;100722.66;;;33.64;37.65
23433;BME280;41331;45.412;10.992;2022-09-13T09:58:41;100723.81;;;33.72;36.07
23433;BME280;41331;45.412;10.992;2022-09-13T10:01:25;100723.72;;;33.43;35.94
23433;BME280;41331;45.412;10.992;2022-09-13T10:04:05;100722.97;;;33.81;36.47
23433;BME280;41331;45.412;10.992;2022-09-13T10:06:36;100717.50;;;35.05;33.18
23433;BME280;41331;45.412;10.992;2022-09-13T10:09:06;100715.16;;;35.59;32.79
23433;BME280;41331;45.412;10.992;2022-09-13T10:11:47;100706.84;;;34.65;34.81
23433;BME280;41331;45.412;10.992;2022-09-13T10:22:22;100696.25;;;36.17;31.68
23433;BME280;41331;45.412;10.992;2022-09-13T10:24:50;100705.25;;;34.64;34.74
23433;BME280;41331;45.412;10.992;2022-09-13T10:27:31;100706.84;;;34.65;34.28
23433;BME280;41331;45.412;10.992;2022-09-13T10:30:02;100704.59;;;33.86;36.18
23433;BME280;41331;45.412;10.992;2022-09-13T10:32:32;100694.28;;;33.35;36.90
23433;BME280;41331;45.412;10.992;2022-09-13T10:35:06;100686.44;;;33.15;36.67
23433;BME280;41331;45.412;10.992;2022-09-13T10:37:35;100683.00;;;33.59;36.46
23433;BME280;41331;45.412;10.992;2022-09-13T10:40:11;100683.88;;;32.93;37.12
23433;BME280;41331;45.412;10.992;2022-09-13T10:42:56;100679.75;;;33.75;36.05
23433;BME280;41331;45.412;10.992;2022-09-13T10:45:25;100685.00;;;34.36;34.74
23433;BME280;41331;45.412;10.992;2022-09-13T10:47:57;100686.97;;;33.52;37.52
23433;BME280;41331;45.412;10.992;2022-09-13T10:50:29;100683.50;;;32.58;39.60
23433;BME280;41331;45.412;10.992;2022-09-13T10:52:59;100669.16;;;33.46;37.63
23433;BME280;41331;45.412;10.992;2022-09-13T10:55:37;100674.19;;;33.66;37.22
23433;BME280;41331;45.412;10.992;2022-09-13T11:10:06;100656.00;;;32.86;37.95
23433;BME280;41331;45.412;10.992;2022-09-13T11:26:27;100643.25;;;32.24;37.24
23433;BME280;41331;45.412;10.992;2022-09-13T11:43:13;100656.56;;;32.05;38.77
23433;BME280;41331;45.412;10.992;2022-09-13T11:45:56;100647.00;;;32.12;38.50
23433;BME280;41331;45.412;10.992;2022-09-13T11:48:33;100653.13;;;31.46;39.53
23433;BME280;41331;45.412;10.992;2022-09-13T11:56:20;100642.22;;;31.94;39.19
23433;BME280;41331;45.412;10.992;2022-09-13T11:58:52;100635.94;;;31.71;38.86
23433;BME280;41331;45.412;10.992;2022-09-13T12:01:25;100640.78;;;31.99;37.97
23433;BME280;41331;45.412;10.992;2022-09-13T12:04:01;100627.78;;;32.10;38.39
23433;BME280;41331;45.412;10.992;2022-09-13T12:06:36;100628.91;;;31.94;38.14
23433;BME280;41331;45.412;10.992;2022-09-13T12:09:33;100618.91;;;31.84;39.27
23433;BME280;41331;45.412;10.992;2022-09-13T12:12:04;100623.97;;;32.22;38.51
23433;BME280;41331;45.412;10.992;2022-09-13T12:14:49;100621.22;;;31.67;40.11
23433;BME280;41331;45.412;10.992;2022-09-13T12:17:23;100614.69;;;31.43;38.88
23433;BME280;41331;45.412;10.992;2022-09-13T12:19:53;100598.56;;;31.99;37.90
23433;BME280;41331;45.412;10.992;2022-09-13T12:22:28;100593.94;;;32.29;37.79
23433;BME280;41331;45.412;10.992;2022-09-13T12:25:03;100597.03;;;31.88;38.05
23433;BME280;41331;45.412;10.992;2022-09-13T12:27:47;100598.44;;;31.84;38.33
23433;BME280;41331;45.412;10.992;2022-09-13T12:30:17;100597.22;;;32.36;36.99
23433;BME280;41331;45.412;10.992;2022-09-13T12:32:46;100596.03;;;32.10;37.72
23433;BME280;41331;45.412;10.992;2022-09-13T12:35:29;100592.50;;;31.63;38.43
23433;BME280;41331;45.412;10.992;2022-09-13T12:41:25;100597.19;;;31.57;38.23
23433;BME280;41331;45.412;10.992;2022-09-13T12:44:25;100593.13;;;31.58;38.13
23433;BME280;41331;45.412;10.992;2022-09-13T12:59:02;100585.47;;;31.50;39.32
23433;BME280;41331;45.412;10.992;2022-09-13T13:01:36;100584.53;;;31.43;38.98
23433;BME280;41331;45.412;10.992;2022-09-13T13:04:17;100584.38;;;31.29;39.06
23433;BME280;41331;45.412;10.992;2022-09-13T13:06:52;100577.19;;;31.28;40.44
23433;BME280;41331;45.412;10.992;2022-09-13T13:09:22;100584.84;;;31.64;38.84
23433;BME280;41331;45.412;10.992;2022-09-13T13:11:55;100577.66;;;31.81;37.95
23433;BME280;41331;45.412;10.992;2022-09-13T13:20:45;100569.22;;;31.44;39.42
23433;BME280;41331;45.412;10.992;2022-09-13T13:23:26;100574.38;;;31.64;39.10
23433;BME280;41331;45.412;10.992;2022-09-13T13:38:55;100556.72;;;31.55;39.09
23433;BME280;41331;45.412;10.992;2022-09-13T13:44:00;100556.09;;;31.32;38.94
23433;BME280;41331;45.412;10.992;2022-09-13T13:46:30;100563.28;;;31.52;39.19
23433;BME280;41331;45.412;10.992;2022-09-13T13:59:49;100560.41;;;30.97;40.64
23433;BME280;41331;45.412;10.992;2022-09-13T14:02:28;100561.81;;;30.83;40.44
23433;BME280;41331;45.412;10.992;2022-09-13T14:16:42;100564.75;;;30.08;41.96
23433;BME280;41331;45.412;10.992;2022-09-13T14:19:41;100551.22;;;29.84;44.45
23433;BME280;41331;45.412;10.992;2022-09-13T14:22:23;100560.59;;;29.90;44.38
23433;BME280;41331;45.412;10.992;2022-09-13T14:24:53;100555.28;;;29.83;42.59
23433;BME280;41331;45.412;10.992;2022-09-13T14:27:26;100556.53;;;29.82;43.44
23433;BME280;41331;45.412;10.992;2022-09-13T14:29:58;100561.19;;;29.85;43.23
23433;BME280;41331;45.412;10.992;2022-09-13T14:32:28;100562.25;;;29.79;44.59
23433;BME280;41331;45.412;10.992;2022-09-13T14:35:26;100550.75;;;30.08;42.00
23433;BME280;41331;45.412;10.992;2022-09-13T14:37:54;100555.53;;;29.98;42.13
23433;BME280;41331;45.412;10.992;2022-09-13T14:40:25;100551.72;;;30.14;43.64
23433;BME280;41331;45.412;10.992;2022-09-13T14:42:54;100545.38;;;30.23;41.71
23433;BME280;41331;45.412;10.992;2022-09-13T14:45:26;100545.13;;;30.39;43.02
23433;BME280;41331;45.412;10.992;2022-09-13T14:48:06;100541.41;;;30.51;42.35
23433;BME280;41331;45.412;10.992;2022-09-13T14:53:21;100532.03;;;30.45;42.34
23433;BME280;41331;45.412;10.992;2022-09-13T14:55:52;100531.09;;;30.39;43.53
23433;BME280;41331;45.412;10.992;2022-09-13T14:58:35;100530.44;;;30.35;42.50
23433;BME280;41331;45.412;10.992;2022-09-13T15:01:09;100538.28;;;30.49;40.74
23433;BME280;41331;45.412;10.992;2022-09-13T15:03:43;100528.16;;;30.52;40.35
23433;BME280;41331;45.412;10.992;2022-09-13T15:06:27;100532.22;;;30.60;40.68
23433;BME280;41331;45.412;10.992;2022-09-13T15:09:21;100526.75;;;30.56;40.72
23433;BME280;41331;45.412;10.992;2022-09-13T15:14:22;100530.84;;;30.64;40.48
23433;BME280;41331;45.412;10.992;2022-09-13T15:16:58;100527.56;;;30.66;40.68
23433;BME280;41331;45.412;10.992;2022-09-13T15:19:34;100527.06;;;30.49;41.41
23433;BME280;41331;45.412;10.992;2022-09-13T15:22:12;100531.22;;;30.35;41.62
23433;BME280;41331;45.412;10.992;2022-09-13T15:25:00;100524.31;;;30.18;40.34
23433;BME280;41331;45.412;10.992;2022-09-13T15:27:28;100526.00;;;30.15;41.51
23433;BME280;41331;45.412;10.992;2022-09-13T15:29:59;100520.56;;;30.21;41.14
23433;BME280;41331;45.412;10.992;2022-09-13T15:32:42;100522.19;;;30.09;42.18
23433;BME280;41331;45.412;10.992;2022-09-13T15:35:21;100516.78;;;29.84;41.69
23433;BME280;41331;45.412;10.992;2022-09-13T15:38:27;100520.66;;;29.55;42.51
23433;BME280;41331;45.412;10.992;2022-09-13T15:40:59;100530.31;;;29.41;42.43
23433;BME280;41331;45.412;10.992;2022-09-13T15:43:28;100528.97;;;29.24;44.21
23433;BME280;41331;45.412;10.992;2022-09-13T15:45:57;100529.25;;;29.04;44.71
23433;BME280;41331;45.412;10.992;2022-09-13T15:48:30;100531.50;;;28.97;44.13
23433;BME280;41331;45.412;10.992;2022-09-13T15:51:10;100537.69;;;28.79;44.96
23433;BME280;41331;45.412;10.992;2022-09-13T15:53:42;100522.13;;;28.78;45.16
23433;BME280;41331;45.412;10.992;2022-09-13T15:56:18;100530.19;;;28.76;44.68
23433;BME280;41331;45.412;10.992;2022-09-13T15:58:46;100521.84;;;28.63;45.25
23433;BME280;41331;45.412;10.992;2022-09-13T16:01:15;100530.13;;;28.54;46.37